Time;durP1;ratioP1;P1;durP2;ratioP2;P2;SDS_P1;SDS_P2;PMS_P1;PMS_P2;Temp;Humidity;BMP_temperature;BMP_pressure;BME280_temperature;BME280_humidity;BME280_pressure;Samples;Min_cycle;Max_cycle;Signal;HPM_P1;HPM_P2
2021/10/06 00:01:12;;;;;;;7.57;4.30;;;;;;;10.09;54.57;100492.75;5030549;28;20041;-70
2021/10/06 00:03:37;;;;;;;10.18;4.97;;;;;;;9.84;55.36;100499.97;5022380;28;20091;-70
2021/10/06 00:06:03;;;;;;;7.63;3.88;;;;;;;9.94;55.23;100496.84;5033418;28;20040;-66
2021/10/06 00:08:28;;;;;;;8.40;4.65;;;;;;;9.49;56.76;100504.84;5032220;28;20103;-65
2021/10/06 00:10:54;;;;;;;8.52;4.53;;;;;;;9.90;54.89;100510.09;5033510;28;20120;-65
2021/10/06 00:13:19;;;;;;;7.63;4.82;;;;;;;9.72;55.72;100514.31;5033467;28;20025;-65
2021/10/06 00:15:45;;;;;;;8.85;5.13;;;;;;;9.62;55.60;100521.69;5029629;28;20106;-65
2021/10/06 00:18:12;;;;;;;6.38;4.35;;;;;;;9.70;55.50;100514.41;5033062;28;20037;-65
2021/10/06 00:20:38;;;;;;;12.05;5.20;;;;;;;9.66;55.71;100527.66;5033740;28;20041;-65
2021/10/06 00:23:04;;;;;;;10.95;5.15;;;;;;;9.80;55.12;100522.72;5036591;28;20029;-71
2021/10/06 00:25:30;;;;;;;8.25;5.20;;;;;;;9.83;54.96;100513.91;5034344;28;20080;-69
2021/10/06 00:27:55;;;;;;;4.97;3.30;;;;;;;9.83;54.96;100508.69;5033673;28;20124;-69
2021/10/06 00:30:21;;;;;;;8.68;4.38;;;;;;;9.68;55.26;100520.56;5013989;28;20442;-71
2021/10/06 00:32:47;;;;;;;7.40;4.20;;;;;;;9.65;56.04;100520.72;5034671;28;20049;-72
2021/10/06 00:35:13;;;;;;;6.75;4.05;;;;;;;9.76;55.59;100519.34;5035305;28;20100;-70
2021/10/06 00:37:39;;;;;;;8.95;4.57;;;;;;;9.71;56.05;100523.06;5032465;28;20076;-70
2021/10/06 00:40:06;;;;;;;12.50;5.60;;;;;;;9.71;55.81;100523.91;5035932;28;20593;-72
2021/10/06 00:42:31;;;;;;;9.18;4.82;;;;;;;9.82;55.36;100523.50;5035779;28;20034;-71
2021/10/06 00:44:57;;;;;;;7.50;4.50;;;;;;;9.74;55.66;100523.78;5031620;28;20179;-72
2021/10/06 00:47:25;;;;;;;7.32;3.72;;;;;;;9.92;54.87;100523.94;5022592;28;20056;-73
2021/10/06 00:49:50;;;;;;;8.02;4.07;;;;;;;9.83;55.22;100524.34;5032924;28;20044;-73
2021/10/06 00:52:16;;;;;;;7.53;4.68;;;;;;;9.88;54.99;100533.69;5035869;28;20075;-74
2021/10/06 00:54:45;;;;;;;6.05;3.88;;;;;;;9.86;54.87;100524.22;5049576;28;20043;-73
2021/10/06 00:57:11;;;;;;;8.00;3.90;;;;;;;10.00;54.71;100527.09;5040683;28;20045;-72
2021/10/06 00:59:38;;;;;;;7.05;4.00;;;;;;;9.68;55.41;100536.22;5048038;28;20192;-73
2021/10/06 01:02:04;;;;;;;5.93;3.60;;;;;;;9.79;55.14;100534.06;5033210;28;20060;-73
2021/10/06 01:04:30;;;;;;;8.30;4.05;;;;;;;9.95;54.64;100529.06;5040693;28;20056;-70
2021/10/06 01:06:56;;;;;;;12.25;3.60;;;;;;;9.85;54.88;100527.75;5024416;28;20045;-69
2021/10/06 01:09:27;;;;;;;7.40;4.07;;;;;;;9.78;54.93;100530.56;5031316;28;20079;-69
2021/10/06 01:11:54;;;;;;;8.65;3.78;;;;;;;9.62;55.37;100531.28;5032384;28;20080;-69
2021/10/06 01:14:22;;;;;;;5.28;3.15;;;;;;;9.98;54.75;100528.91;5031248;28;20037;-69
2021/10/06 01:16:48;;;;;;;6.68;3.45;;;;;;;9.33;55.84;100530.72;5032647;28;20044;-70
2021/10/06 01:19:22;;;;;;;8.80;3.58;;;;;;;9.58;55.16;100533.16;5035280;28;20040;-71
2021/10/06 01:21:48;;;;;;;7.60;3.65;;;;;;;9.73;54.88;100535.16;5038255;28;20098;-70
2021/10/06 01:24:14;;;;;;;11.63;3.80;;;;;;;9.83;54.11;100537.41;5034062;28;20561;-68
2021/10/06 01:26:39;;;;;;;6.75;3.38;;;;;;;9.70;54.64;100540.50;5035036;28;20041;-67
2021/10/06 01:29:05;;;;;;;9.77;3.72;;;;;;;9.10;56.54;100536.84;5029727;28;20297;-68
2021/10/06 01:31:30;;;;;;;10.60;3.20;;;;;;;9.35;55.65;100539.34;5031953;28;20037;-69
2021/10/06 01:33:56;;;;;;;6.30;3.13;;;;;;;9.34;55.50;100548.91;5030163;28;20036;-67
2021/10/06 01:36:24;;;;;;;9.77;4.03;;;;;;;9.44;55.09;100545.94;5032850;28;20727;-68
2021/10/06 01:38:49;;;;;;;3.78;3.33;;;;;;;9.36;55.42;100551.44;5030027;28;20116;-67
2021/10/06 01:41:17;;;;;;;6.72;3.00;;;;;;;9.43;54.95;100552.06;5033192;28;20119;-67
2021/10/06 01:43:43;;;;;;;6.97;3.60;;;;;;;9.54;54.62;100560.28;5015488;28;20087;-69
2021/10/06 01:46:08;;;;;;;8.38;5.10;;;;;;;9.47;55.05;100564.06;5033126;28;20049;-70
2021/10/06 01:48:34;;;;;;;5.47;2.85;;;;;;;9.56;54.56;100561.06;5040364;28;20033;-69
2021/10/06 01:50:59;;;;;;;8.20;3.08;;;;;;;9.12;55.92;100558.47;5031418;28;20566;-70
2021/10/06 01:53:38;;;;;;;10.55;3.85;;;;;;;9.58;54.44;100564.47;5035326;28;20540;-70
2021/10/06 01:56:04;;;;;;;8.68;3.65;;;;;;;9.40;55.04;100561.69;5033207;28;20055;-72
2021/10/06 01:58:30;;;;;;;6.07;2.15;;;;;;;9.45;54.52;100565.88;5032969;28;20391;-70
2021/10/06 02:00:58;;;;;;;5.00;3.42;;;;;;;9.42;55.00;100566.84;5033559;28;20064;-70
2021/10/06 02:03:23;;;;;;;4.57;2.47;;;;;;;9.45;54.90;100576.31;5042426;28;20474;-70
2021/10/06 02:05:49;;;;;;;7.13;2.92;;;;;;;9.44;55.15;100569.41;5028779;28;20102;-70
2021/10/06 02:08:15;;;;;;;9.30;3.97;;;;;;;9.47;54.75;100569.28;5036921;28;20178;-69
2021/10/06 02:10:44;;;;;;;7.90;3.20;;;;;;;9.54;54.50;100565.50;5034582;28;20064;-69
2021/10/06 02:13:14;;;;;;;8.57;2.78;;;;;;;9.53;55.07;100575.09;5033324;28;20041;-69
2021/10/06 02:15:42;;;;;;;10.68;3.40;;;;;;;9.31;55.42;100569.88;5028578;28;20106;-71
2021/10/06 02:18:08;;;;;;;4.97;1.98;;;;;;;9.58;54.73;100577.53;5030619;28;20068;-69
2021/10/06 02:20:33;;;;;;;3.13;2.45;;;;;;;9.75;54.08;100575.06;5032049;28;20124;-71
2021/10/06 02:22:59;;;;;;;6.70;2.80;;;;;;;9.62;54.57;100571.28;5028956;28;20140;-69
2021/10/06 02:25:27;;;;;;;8.48;2.40;;;;;;;9.80;53.92;100578.38;5030715;28;20502;-69
2021/10/06 02:27:53;;;;;;;5.72;2.72;;;;;;;9.69;54.26;100572.72;5030777;28;20044;-69
2021/10/06 02:30:19;;;;;;;3.20;2.00;;;;;;;9.86;53.90;100579.06;5032057;28;20080;-69
2021/10/06 02:32:45;;;;;;;4.35;2.00;;;;;;;9.65;54.32;100584.19;5032104;28;20044;-69
2021/10/06 02:35:10;;;;;;;6.20;2.58;;;;;;;9.71;54.25;100583.09;5047054;28;20045;-69
2021/10/06 02:37:38;;;;;;;4.00;1.77;;;;;;;9.71;54.04;100578.72;5032394;28;20078;-69
2021/10/06 02:40:07;;;;;;;5.60;2.28;;;;;;;9.82;53.52;100580.09;5030857;28;20410;-70
2021/10/06 02:42:32;;;;;;;5.70;2.90;;;;;;;9.48;54.25;100581.44;5030315;28;20033;-69
2021/10/06 02:44:57;;;;;;;2.63;1.77;;;;;;;9.57;54.19;100583.66;5045608;28;20109;-69
2021/10/06 02:47:25;;;;;;;3.53;1.95;;;;;;;9.56;54.27;100581.94;5030435;28;20047;-69
2021/10/06 02:49:51;;;;;;;4.82;2.08;;;;;;;9.76;53.71;100581.13;5029162;28;20517;-69
2021/10/06 02:52:16;;;;;;;7.25;2.15;;;;;;;9.93;53.14;100593.53;5030987;28;22454;-69
2021/10/06 02:54:42;;;;;;;6.80;2.85;;;;;;;9.96;52.62;100596.00;5030953;28;20047;-71
2021/10/06 02:57:08;;;;;;;6.70;2.22;;;;;;;9.53;53.39;100600.34;5033394;28;20973;-70
2021/10/06 02:59:35;;;;;;;5.57;1.90;;;;;;;9.50;53.79;100605.66;5030670;28;20033;-67
2021/10/06 03:02:00;;;;;;;10.55;2.33;;;;;;;9.48;53.37;100599.69;5029968;28;20037;-69
2021/10/06 03:04:26;;;;;;;7.32;1.92;;;;;;;9.44;53.90;100601.56;5032394;28;20098;-69
2021/10/06 03:06:52;;;;;;;2.95;1.33;;;;;;;9.36;53.74;100594.03;5028328;28;20056;-69
2021/10/06 03:09:17;;;;;;;5.88;2.42;;;;;;;9.39;53.68;100603.50;5028512;28;20124;-69
2021/10/06 03:11:44;;;;;;;4.93;1.90;;;;;;;9.22;54.42;100601.53;5032193;28;20052;-69
2021/10/06 03:14:09;;;;;;;4.43;1.45;;;;;;;9.14;54.28;100614.03;5028414;28;20510;-69
2021/10/06 03:16:35;;;;;;;3.50;1.60;;;;;;;9.30;53.76;100614.31;5030217;28;20565;-69
2021/10/06 03:19:01;;;;;;;4.82;1.35;;;;;;;9.36;53.51;100608.81;5027898;28;20033;-69
2021/10/06 03:21:26;;;;;;;7.82;1.98;;;;;;;9.32;53.56;100610.72;5030637;28;20479;-70
2021/10/06 03:23:52;;;;;;;3.80;1.27;;;;;;;9.47;53.24;100608.41;5027159;28;20395;-69
2021/10/06 03:26:17;;;;;;;4.55;2.08;;;;;;;9.23;53.80;100613.69;5031563;28;20048;-69
2021/10/06 03:28:43;;;;;;;5.03;1.40;;;;;;;9.44;53.27;100616.38;5029977;28;20063;-69
2021/10/06 03:31:08;;;;;;;4.90;1.58;;;;;;;9.41;53.42;100619.94;5031135;28;20094;-69
2021/10/06 03:33:34;;;;;;;2.67;1.33;;;;;;;9.39;53.58;100619.16;5029593;28;20056;-69
2021/10/06 03:35:59;;;;;;;4.90;1.27;;;;;;;9.60;52.84;100623.50;5029703;28;20041;-71
2021/10/06 03:38:25;;;;;;;2.95;1.25;;;;;;;9.72;52.59;100630.03;5048289;28;20096;-69
2021/10/06 03:40:50;;;;;;;6.78;2.08;;;;;;;9.78;52.46;100636.75;5019198;28;20342;-69
2021/10/06 03:43:16;;;;;;;5.82;1.73;;;;;;;9.70;52.74;100634.44;5035221;28;20102;-70
2021/10/06 03:45:41;;;;;;;2.47;1.15;;;;;;;9.55;52.86;100635.06;5028509;28;20041;-69
2021/10/06 03:48:07;;;;;;;7.38;1.98;;;;;;;9.70;52.32;100644.03;5028617;28;20026;-69
2021/10/06 03:50:32;;;;;;;6.20;1.33;;;;;;;9.73;52.37;100644.75;5029524;28;20506;-74
2021/10/06 03:52:58;;;;;;;4.15;1.02;;;;;;;9.88;51.96;100639.84;5046384;28;20815;-74
2021/10/06 03:55:23;;;;;;;2.30;1.35;;;;;;;9.67;52.37;100650.22;5028599;28;20049;-74
2021/10/06 03:57:49;;;;;;;3.40;1.10;;;;;;;9.65;52.30;100649.41;5048653;28;20036;-74
2021/10/06 04:00:14;;;;;;;1.88;0.88;;;;;;;9.66;52.41;100647.69;5033456;28;20053;-73
2021/10/06 04:02:40;;;;;;;1.73;0.85;;;;;;;9.52;52.88;100650.81;5030668;28;20102;-71
2021/10/06 04:05:08;;;;;;;4.60;1.20;;;;;;;9.56;52.36;100655.84;5033301;28;20033;-72
2021/10/06 04:07:35;;;;;;;6.90;1.40;;;;;;;9.28;53.34;100656.09;5028957;28;20034;-70
2021/10/06 04:10:01;;;;;;;5.10;1.42;;;;;;;9.48;52.76;100660.53;5028479;28;20134;-68
2021/10/06 04:12:26;;;;;;;4.47;1.52;;;;;;;9.58;52.68;100654.03;5029002;28;20033;-69
2021/10/06 04:14:52;;;;;;;6.13;1.27;;;;;;;9.32;53.44;100655.06;5027678;28;20060;-69
2021/10/06 04:17:17;;;;;;;3.65;1.67;;;;;;;9.60;52.39;100662.66;5037105;28;20077;-69
2021/10/06 04:19:43;;;;;;;3.67;1.50;;;;;;;9.58;52.76;100659.25;5028336;28;20041;-72
2021/10/06 04:22:11;;;;;;;4.28;1.20;;;;;;;9.64;52.41;100666.00;5030786;28;20041;-69
2021/10/06 04:24:37;;;;;;;6.28;3.38;;;;;;;9.79;52.19;100670.66;5029060;28;20034;-69
2021/10/06 04:27:02;;;;;;;8.55;2.90;;;;;;;9.69;52.60;100669.28;5031818;28;20537;-69
2021/10/06 04:29:30;;;;;;;3.92;1.40;;;;;;;9.55;53.04;100676.81;5036340;28;20036;-70
2021/10/06 04:31:56;;;;;;;7.70;1.70;;;;;;;9.67;52.89;100676.31;5032261;28;20037;-69
2021/10/06 04:34:21;;;;;;;3.40;1.40;;;;;;;9.55;53.06;100680.25;5011238;28;20461;-68
2021/10/06 04:36:47;;;;;;;3.78;2.03;;;;;;;9.50;53.48;100679.59;5030879;28;20513;-68
2021/10/06 04:39:13;;;;;;;5.85;2.58;;;;;;;9.49;53.13;100677.88;5027038;28;20044;-68
2021/10/06 04:41:38;;;;;;;4.43;1.83;;;;;;;9.54;53.17;100682.91;5033543;28;20569;-68
2021/10/06 04:44:04;;;;;;;2.53;1.67;;;;;;;9.67;53.00;100681.53;5028591;28;20228;-68
2021/10/06 04:46:29;;;;;;;6.63;1.92;;;;;;;9.61;53.17;100689.63;5032525;28;20043;-68
2021/10/06 04:48:55;;;;;;;4.30;2.05;;;;;;;9.65;52.98;100682.50;5032616;28;20037;-68
2021/10/06 04:51:20;;;;;;;3.78;1.92;;;;;;;9.55;53.22;100693.31;5033026;28;20575;-67
2021/10/06 04:53:46;;;;;;;4.70;2.58;;;;;;;9.67;53.35;100691.13;5033319;28;20099;-68
2021/10/06 04:56:11;;;;;;;7.82;2.33;;;;;;;9.77;53.00;100697.69;5030346;28;20045;-68
2021/10/06 04:58:37;;;;;;;8.40;3.15;;;;;;;9.57;53.46;100695.88;5032653;28;20486;-68
2021/10/06 05:01:02;;;;;;;9.43;3.88;;;;;;;9.48;53.60;100699.66;5031480;28;20080;-68
2021/10/06 05:03:28;;;;;;;9.05;3.55;;;;;;;9.53;53.24;100697.72;5034760;28;20478;-68
2021/10/06 05:05:53;;;;;;;4.95;2.08;;;;;;;9.62;53.64;100708.72;5032081;28;20041;-68
2021/10/06 05:08:19;;;;;;;5.32;3.05;;;;;;;9.60;53.36;100709.63;5037992;28;20037;-68
2021/10/06 05:10:44;;;;;;;3.75;2.10;;;;;;;9.72;52.97;100710.06;5030148;28;20099;-68
2021/10/06 05:13:10;;;;;;;6.15;2.22;;;;;;;9.67;53.20;100718.06;5024067;28;20036;-68
2021/10/06 05:15:35;;;;;;;7.78;2.55;;;;;;;9.75;53.11;100720.41;5038224;28;20041;-68
2021/10/06 05:18:01;;;;;;;4.93;2.35;;;;;;;9.88;52.77;100718.16;5031145;28;20065;-68
2021/10/06 05:20:26;;;;;;;5.65;2.95;;;;;;;9.42;53.56;100727.75;5033353;28;20044;-67
2021/10/06 05:22:52;;;;;;;7.45;2.10;;;;;;;9.82;52.43;100734.09;5032423;28;20029;-67
2021/10/06 05:25:18;;;;;;;4.35;2.75;;;;;;;9.84;52.50;100724.44;5041260;28;20045;-69
2021/10/06 05:27:43;;;;;;;5.55;1.73;;;;;;;9.99;52.19;100723.81;5037245;28;20032;-68
2021/10/06 05:30:12;;;;;;;6.95;2.10;;;;;;;9.68;53.11;100729.34;5030745;28;20544;-68
2021/10/06 05:32:37;;;;;;;4.95;2.28;;;;;;;10.03;52.02;100730.59;5032350;28;20667;-67
2021/10/06 05:35:03;;;;;;;3.60;2.60;;;;;;;9.97;52.12;100718.66;5040675;28;20041;-68
2021/10/06 05:37:29;;;;;;;5.65;2.20;;;;;;;10.04;52.09;100726.25;5033415;28;20037;-68
2021/10/06 05:39:54;;;;;;;7.00;1.95;;;;;;;10.02;52.00;100724.53;5019106;28;20045;-68
2021/10/06 05:42:20;;;;;;;6.72;2.67;;;;;;;9.94;52.13;100730.97;5039051;28;20040;-68
2021/10/06 05:44:46;;;;;;;9.13;2.67;;;;;;;9.69;52.71;100731.91;5045879;28;20072;-68
2021/10/06 05:47:12;;;;;;;6.10;2.33;;;;;;;9.92;52.35;100732.78;5034758;28;20078;-68
2021/10/06 05:49:37;;;;;;;4.32;2.42;;;;;;;9.57;53.17;100732.41;5037298;28;20049;-68
2021/10/06 05:52:03;;;;;;;8.90;2.10;;;;;;;9.58;53.14;100734.91;5017572;28;20037;-68
2021/10/06 05:54:29;;;;;;;4.32;1.63;;;;;;;9.94;52.01;100731.81;5039489;28;20455;-68
2021/10/06 05:56:54;;;;;;;3.53;2.22;;;;;;;9.91;52.33;100736.34;5031909;28;20065;-68
2021/10/06 05:59:20;;;;;;;4.93;2.40;;;;;;;9.82;52.51;100744.53;5039280;28;20036;-67
2021/10/06 06:01:47;;;;;;;3.03;2.00;;;;;;;9.97;52.10;100743.94;5031882;28;20127;-69
2021/10/06 06:04:17;;;;;;;2.88;2.30;;;;;;;9.56;53.29;100754.16;5048874;28;20421;-68
2021/10/06 06:06:43;;;;;;;4.82;1.80;;;;;;;9.84;52.29;100750.53;5031414;28;20053;-68
2021/10/06 06:09:10;;;;;;;9.90;2.50;;;;;;;9.72;52.14;100757.91;5031005;28;20148;-67
2021/10/06 06:11:35;;;;;;;5.63;2.83;;;;;;;9.97;51.68;100767.44;5033999;28;20033;-68
2021/10/06 06:14:01;;;;;;;5.97;1.90;;;;;;;9.54;52.94;100767.28;5032533;28;20089;-67
2021/10/06 06:16:29;;;;;;;4.90;2.10;;;;;;;9.89;51.93;100766.88;5034122;28;20510;-68
2021/10/06 06:18:54;;;;;;;4.75;1.85;;;;;;;9.95;51.48;100764.88;5049654;28;20090;-67
2021/10/06 06:21:20;;;;;;;5.38;1.95;;;;;;;10.02;51.24;100766.31;5031664;28;20052;-67
2021/10/06 06:23:47;;;;;;;4.65;2.33;;;;;;;9.80;51.87;100768.06;5034736;28;20128;-67
2021/10/06 06:26:12;;;;;;;4.22;1.88;;;;;;;10.07;51.63;100770.53;5038385;28;20043;-67
2021/10/06 06:28:38;;;;;;;4.63;2.10;;;;;;;10.18;51.11;100779.63;5030828;28;20037;-67
2021/10/06 06:31:05;;;;;;;10.43;1.73;;;;;;;10.25;51.02;100785.44;5031073;28;20033;-68
2021/10/06 06:33:31;;;;;;;3.40;2.10;;;;;;;10.34;51.08;100784.22;5029879;28;20079;-68
2021/10/06 06:35:57;;;;;;;6.20;2.15;;;;;;;10.43;50.28;100781.25;5047477;28;20053;-68
2021/10/06 06:38:22;;;;;;;3.83;2.05;;;;;;;10.29;50.65;100784.41;5031759;28;20120;-67
2021/10/06 06:40:48;;;;;;;2.25;1.90;;;;;;;10.43;50.46;100786.47;5032265;28;20156;-68
2021/10/06 06:43:13;;;;;;;7.13;1.63;;;;;;;10.16;51.23;100802.34;5027303;28;20355;-67
2021/10/06 06:45:39;;;;;;;4.65;1.60;;;;;;;10.05;52.06;100804.50;5034707;28;20424;-67
2021/10/06 06:48:05;;;;;;;7.75;2.53;;;;;;;9.73;52.94;100800.50;5033193;28;20120;-68
2021/10/06 06:50:31;;;;;;;8.38;2.90;;;;;;;9.56;54.11;100814.16;5031054;28;20072;-67
2021/10/06 06:52:57;;;;;;;2.90;1.60;;;;;;;9.68;53.88;100821.56;5032159;28;23363;-69
2021/10/06 06:55:22;;;;;;;8.40;3.25;;;;;;;9.69;54.25;100823.25;5028502;28;20045;-69
2021/10/06 06:57:48;;;;;;;5.78;2.03;;;;;;;9.42;55.00;100832.09;5031288;28;20037;-68
2021/10/06 07:00:13;;;;;;;7.85;2.13;;;;;;;9.58;54.31;100833.22;5030637;28;20095;-69
2021/10/06 07:02:39;;;;;;;4.75;2.28;;;;;;;9.61;54.30;100838.34;5030554;28;20037;-69
2021/10/06 07:05:05;;;;;;;6.72;2.55;;;;;;;9.67;54.71;100842.50;5028911;28;20049;-67
2021/10/06 07:07:31;;;;;;;4.10;2.42;;;;;;;9.90;54.27;100855.59;5032126;28;20040;-68
2021/10/06 07:09:56;;;;;;;5.63;2.78;;;;;;;9.98;54.04;100848.28;5031419;28;20040;-67
2021/10/06 07:12:22;;;;;;;4.72;3.05;;;;;;;10.12;53.59;100845.16;5031376;28;20397;-69
2021/10/06 07:14:49;;;;;;;4.78;2.55;;;;;;;10.24;53.72;100845.59;5031004;28;20042;-67
2021/10/06 07:17:15;;;;;;;6.00;2.47;;;;;;;10.29;53.12;100848.88;5046913;28;20082;-68
2021/10/06 07:19:41;;;;;;;7.25;2.45;;;;;;;10.71;52.46;100854.16;5030604;28;20038;-68
2021/10/06 07:22:09;;;;;;;5.63;2.22;;;;;;;10.71;51.90;100863.78;5031862;28;20844;-68
2021/10/06 07:24:35;;;;;;;5.57;2.38;;;;;;;10.99;51.25;100853.88;5034103;28;20097;-67
2021/10/06 07:27:02;;;;;;;4.28;2.80;;;;;;;11.03;51.18;100860.69;5029718;28;20512;-67
2021/10/06 07:29:27;;;;;;;3.17;1.92;;;;;;;12.16;47.63;100855.75;5030972;28;20037;-68
2021/10/06 07:31:55;;;;;;;2.40;1.58;;;;;;;13.41;45.39;100864.44;5028563;28;20417;-69
2021/10/06 07:34:21;;;;;;;3.85;1.92;;;;;;;13.91;42.63;100860.06;5037674;28;20564;-67
2021/10/06 07:36:46;;;;;;;4.25;1.67;;;;;;;13.15;44.31;100870.19;5033144;28;20041;-67
2021/10/06 07:39:12;;;;;;;3.42;1.70;;;;;;;12.63;44.98;100869.19;5033556;28;20390;-67
2021/10/06 07:41:38;;;;;;;4.90;1.70;;;;;;;12.67;45.30;100860.25;5026685;28;20048;-68
2021/10/06 07:44:03;;;;;;;5.10;1.30;;;;;;;12.67;44.90;100865.50;5030787;28;20410;-67
2021/10/06 07:46:29;;;;;;;2.80;0.90;;;;;;;12.27;45.12;100867.41;5029763;28;20200;-68
2021/10/06 07:48:54;;;;;;;4.75;1.63;;;;;;;12.20;45.69;100870.38;5029732;28;20170;-70
2021/10/06 07:51:21;;;;;;;8.52;0.85;;;;;;;12.30;45.62;100882.13;5028680;28;20069;-67
2021/10/06 07:53:47;;;;;;;3.20;1.20;;;;;;;12.72;44.37;100880.19;5029298;28;20489;-68
2021/10/06 07:56:16;;;;;;;4.13;1.23;;;;;;;13.08;43.08;100886.22;5028366;28;20521;-67
2021/10/06 07:58:41;;;;;;;7.45;1.42;;;;;;;12.44;45.14;100887.56;5026568;28;20036;-67
2021/10/06 08:01:08;;;;;;;5.22;1.50;;;;;;;12.97;43.25;100882.44;5027881;28;20028;-67
2021/10/06 08:03:33;;;;;;;0.70;0.60;;;;;;;15.78;37.61;100883.47;5031453;28;20041;-67
2021/10/06 08:05:59;;;;;;;1.55;0.40;;;;;;;16.66;35.28;100887.63;5028480;28;20053;-67
2021/10/06 08:08:26;;;;;;;1.40;0.68;;;;;;;15.17;38.42;100900.34;5038136;28;20140;-67
2021/10/06 08:10:54;;;;;;;1.30;0.47;;;;;;;15.56;36.64;100906.81;5035595;28;20601;-67
2021/10/06 08:13:20;;;;;;;3.67;0.77;;;;;;;14.96;37.75;100907.69;5029513;28;20548;-68
2021/10/06 08:15:46;;;;;;;3.08;0.38;;;;;;;14.56;39.38;100917.84;5009292;28;20091;-67
2021/10/06 08:18:16;;;;;;;4.13;0.82;;;;;;;13.73;40.77;100925.78;5031310;28;20037;-67
2021/10/06 08:20:43;;;;;;;3.08;0.77;;;;;;;13.46;41.16;100921.94;5035020;28;20499;-67
2021/10/06 08:23:09;;;;;;;2.80;0.52;;;;;;;14.03;39.87;100924.25;5033576;28;20033;-68
2021/10/06 08:25:34;;;;;;;2.00;0.52;;;;;;;14.12;39.21;100927.25;5032785;28;20484;-68
2021/10/06 08:28:00;;;;;;;3.60;0.70;;;;;;;14.62;39.68;100930.66;5033029;28;20028;-68
2021/10/06 08:30:27;;;;;;;0.88;0.55;;;;;;;16.92;35.86;100920.25;5033767;28;20041;-67
2021/10/06 08:32:53;;;;;;;0.90;0.40;;;;;;;16.73;35.13;100925.84;5032179;28;20037;-68
2021/10/06 08:35:18;;;;;;;2.75;0.40;;;;;;;15.21;37.86;100932.56;5044194;28;20045;-68
2021/10/06 08:37:44;;;;;;;0.73;0.20;;;;;;;14.35;38.85;100939.13;5031552;28;20041;-68
2021/10/06 08:40:10;;;;;;;2.08;0.40;;;;;;;13.53;40.21;100939.94;5031702;28;20096;-68
2021/10/06 08:42:37;;;;;;;0.85;0.30;;;;;;;13.04;41.96;100946.81;5037243;28;20530;-68
2021/10/06 08:45:09;;;;;;;3.83;0.52;;;;;;;12.53;43.24;100958.84;5035728;28;20071;-68
2021/10/06 08:47:39;;;;;;;0.77;0.28;;;;;;;12.42;44.36;100965.47;5035889;28;20033;-68
2021/10/06 08:50:09;;;;;;;1.65;0.40;;;;;;;12.55;44.83;100960.47;5033252;28;20044;-68
2021/10/06 08:52:34;;;;;;;3.85;0.40;;;;;;;12.04;45.65;100960.19;5036254;28;20526;-67
2021/10/06 08:55:01;;;;;;;2.25;0.40;;;;;;;12.03;46.30;100978.59;5039685;28;20120;-68
2021/10/06 08:57:26;;;;;;;1.23;0.65;;;;;;;12.26;45.72;100974.91;5024918;28;20439;-69
2021/10/06 08:59:52;;;;;;;4.00;1.13;;;;;;;12.32;46.02;100963.31;5031601;28;20044;-69
2021/10/06 09:02:18;;;;;;;3.58;0.88;;;;;;;12.45;46.18;100974.94;5034686;28;20568;-68
2021/10/06 09:04:43;;;;;;;3.92;0.93;;;;;;;12.33;46.31;100978.13;5035037;28;20041;-67
2021/10/06 09:07:09;;;;;;;2.33;0.60;;;;;;;12.06;46.22;100979.28;5032979;28;20021;-68
2021/10/06 09:09:36;;;;;;;2.25;0.90;;;;;;;12.14;46.98;100981.56;5046924;28;20190;-68
2021/10/06 09:12:09;;;;;;;6.53;1.13;;;;;;;12.28;45.84;100976.53;5048586;28;20121;-67
2021/10/06 09:14:42;;;;;;;4.22;0.57;;;;;;;12.15;46.22;100991.13;5036504;28;20091;-67
2021/10/06 09:17:13;;;;;;;2.13;1.05;;;;;;;12.06;46.02;100994.16;5050546;28;20132;-68
2021/10/06 09:19:54;;;;;;;1.50;0.52;;;;;;;12.61;45.25;100989.03;5041185;28;20063;-68
2021/10/06 09:22:27;;;;;;;3.42;1.02;;;;;;;13.19;44.41;100990.66;5036704;28;20048;-69
2021/10/06 09:24:55;;;;;;;3.42;0.95;;;;;;;13.32;42.91;100991.75;5027055;28;20522;-69
2021/10/06 09:27:24;;;;;;;1.60;0.60;;;;;;;13.79;42.82;100995.56;5036852;28;20102;-69
2021/10/06 09:29:52;;;;;;;4.10;0.80;;;;;;;14.06;41.85;100997.69;5031214;28;20380;-67
2021/10/06 09:32:23;;;;;;;0.88;0.60;;;;;;;13.57;42.46;101008.09;5036941;28;20115;-68
2021/10/06 09:35:00;;;;;;;3.78;0.90;;;;;;;13.49;41.96;101004.03;5033959;28;20104;-68
2021/10/06 09:37:26;;;;;;;2.97;0.90;;;;;;;13.74;41.90;101008.06;5035720;28;20037;-68
2021/10/06 09:39:52;;;;;;;7.72;1.05;;;;;;;13.38;42.70;101011.59;5033143;28;20045;-68
2021/10/06 09:42:17;;;;;;;5.80;0.60;;;;;;;13.42;42.93;101012.28;5036253;28;20025;-68
2021/10/06 09:44:52;;;;;;;3.50;0.38;;;;;;;13.31;43.19;101025.94;5034965;28;20057;-68
2021/10/06 09:47:18;;;;;;;1.85;0.80;;;;;;;13.09;43.52;101024.38;5050854;28;20049;-68
2021/10/06 09:49:43;;;;;;;5.35;0.60;;;;;;;12.72;44.42;101025.28;5032271;28;20116;-68
2021/10/06 09:52:13;;;;;;;6.30;1.50;;;;;;;12.67;45.25;101033.31;5041734;28;20790;-67
2021/10/06 09:54:39;;;;;;;3.63;0.60;;;;;;;11.99;47.19;101037.25;5033309;28;20304;-69
2021/10/06 09:57:05;;;;;;;5.45;0.90;;;;;;;12.11;47.16;101055.09;5035416;28;20033;-69
2021/10/06 09:59:31;;;;;;;1.40;0.70;;;;;;;11.99;48.00;101055.59;5032837;28;20358;-68
2021/10/06 10:01:59;;;;;;;3.70;0.98;;;;;;;11.77;48.66;101060.88;5035063;28;20049;-67
2021/10/06 10:04:28;;;;;;;4.63;0.82;;;;;;;11.14;50.77;101071.28;5034185;28;20049;-69
2021/10/06 10:06:55;;;;;;;1.30;0.95;;;;;;;11.48;50.27;101078.63;5040578;28;20056;-69
2021/10/06 10:09:21;;;;;;;1.75;0.90;;;;;;;11.07;51.37;101078.50;5037455;28;20029;-68
2021/10/06 10:11:47;;;;;;;2.08;0.80;;;;;;;11.67;50.00;101081.34;5034483;28;20033;-68
2021/10/06 10:14:13;;;;;;;4.03;1.63;;;;;;;11.84;50.55;101086.78;5032736;28;20656;-70
2021/10/06 10:16:39;;;;;;;3.10;1.30;;;;;;;12.49;49.07;101087.47;5040026;28;20037;-68
2021/10/06 10:19:12;;;;;;;1.90;1.17;;;;;;;12.81;48.10;101097.44;5034026;28;20120;-69
2021/10/06 10:21:44;;;;;;;1.58;1.10;;;;;;;12.62;48.01;101098.22;5033361;28;20656;-67
2021/10/06 10:24:11;;;;;;;;;;;;;;;12.43;48.43;101102.59;5032537;28;20052;-68
2021/10/06 10:26:52;;;;;;;6.78;1.38;;;;;;;12.61;48.95;101107.03;5041087;28;19963;-68
2021/10/06 10:29:43;;;;;;;3.10;1.58;;;;;;;11.97;49.54;101109.81;5036595;28;20267;-68
2021/10/06 10:32:11;;;;;;;1.77;0.80;;;;;;;11.93;49.84;101108.25;5019056;28;20059;-69
2021/10/06 10:35:11;;;;;;;5.35;0.90;;;;;;;11.44;51.51;101111.06;5029878;28;20106;-69
2021/10/06 10:37:48;;;;;;;3.22;1.33;;;;;;;11.44;50.84;101117.19;5017653;28;20049;-68
2021/10/06 10:40:29;;;;;;;4.70;1.50;;;;;;;11.00;52.00;101130.19;5026799;28;20072;-69
2021/10/06 10:43:00;;;;;;;5.28;1.20;;;;;;;11.42;51.80;101123.38;5033684;28;20296;-68
2021/10/06 10:46:00;;;;;;;5.22;1.33;;;;;;;10.67;53.22;101128.81;5034488;28;20486;-68
2021/10/06 10:48:52;;;;;;;3.70;1.30;;;;;;;11.70;51.52;101128.34;5038921;28;20037;-68
2021/10/06 10:51:17;;;;;;;3.95;1.75;;;;;;;11.82;49.76;101132.25;5030590;28;20052;-68
2021/10/06 10:53:51;;;;;;;5.43;1.10;;;;;;;11.68;49.69;101135.41;5032318;28;20091;-68
2021/10/06 10:56:43;;;;;;;8.48;1.73;;;;;;;12.15;49.32;101137.84;5033173;28;20580;-70
2021/10/06 10:59:14;;;;;;;3.75;0.98;;;;;;;12.50;48.51;101135.50;5032647;28;20029;-68
2021/10/06 11:01:47;;;;;;;2.03;1.02;;;;;;;13.07;47.71;101125.94;5031354;28;20437;-69
2021/10/06 11:04:35;;;;;;;1.25;0.63;;;;;;;13.44;45.69;101129.44;5032051;28;20045;-68
2021/10/06 11:07:18;;;;;;;1.92;0.90;;;;;;;14.09;45.57;101136.81;5027990;28;20075;-68
2021/10/06 11:09:47;;;;;;;4.78;1.08;;;;;;;13.58;44.50;101147.19;5036508;28;20565;-68
2021/10/06 11:12:12;;;;;;;1.88;0.57;;;;;;;13.82;44.45;101144.28;5031401;28;20045;-68
2021/10/06 11:14:40;;;;;;;2.47;0.60;;;;;;;13.86;43.67;101138.81;5037018;28;20071;-68
2021/10/06 11:17:15;;;;;;;2.00;1.05;;;;;;;13.38;45.15;101148.09;5050997;28;20111;-68
2021/10/06 11:19:47;;;;;;;3.58;0.82;;;;;;;13.42;45.18;101141.78;5022280;28;20049;-67
2021/10/06 11:22:22;;;;;;;2.85;0.60;;;;;;;13.76;44.50;101140.19;5032667;28;20955;-67
2021/10/06 11:25:05;;;;;;;1.30;0.68;;;;;;;13.90;44.77;101148.25;5029518;28;20495;-69
2021/10/06 11:28:03;;;;;;;2.45;0.70;;;;;;;13.87;44.77;101147.53;5045961;28;20032;-68
2021/10/06 11:30:28;;;;;;;3.30;0.65;;;;;;;14.05;42.95;101151.03;5016032;28;20080;-67